createdAt,value
2023-04-12T00:01:45.717Z,44.35
2023-04-12T00:04:14.410Z,22.95
2023-04-12T00:06:41.898Z,17.48
2023-04-12T00:09:08.980Z,15.13
2023-04-12T00:11:36.756Z,10.73
2023-04-12T00:14:03.879Z,14.90
2023-04-12T00:16:31.410Z,11.88
2023-04-12T00:18:58.557Z,12.85
2023-04-12T00:21:28.692Z,12.85
2023-04-12T00:23:56.739Z,10.98
2023-04-12T00:26:25.576Z,11.93
2023-04-12T00:28:52.682Z,10.63
2023-04-12T00:31:19.929Z,10.57
2023-04-12T00:33:47.221Z,7.90
2023-04-12T00:36:14.397Z,9.48
2023-04-12T00:38:42.405Z,8.93
2023-04-12T00:41:09.554Z,9.50
2023-04-12T00:43:36.636Z,8.07
2023-04-12T00:46:03.770Z,9.77
2023-04-12T00:48:31.441Z,10.35
2023-04-12T00:50:58.560Z,8.98
2023-04-12T00:53:25.701Z,8.73
2023-04-12T00:55:53.089Z,10.52
2023-04-12T00:58:21.460Z,9.15
2023-04-12T01:00:52.861Z,11.65
2023-04-12T01:03:23.309Z,20.25
2023-04-12T01:05:58.594Z,13.57
2023-04-12T01:08:30.568Z,10.90
2023-04-12T01:10:58.085Z,10.27
2023-04-12T01:13:25.344Z,13.93
2023-04-12T01:15:56.157Z,11.80
2023-04-12T01:18:23.828Z,9.55
2023-04-12T01:21:20.630Z,14.52
2023-04-12T01:24:04.654Z,10.93
2023-04-12T01:26:48.297Z,12.35
2023-04-12T01:29:16.241Z,8.93
2023-04-12T01:31:50.543Z,8.68
2023-04-12T01:34:17.700Z,10.53
2023-04-12T01:36:44.950Z,9.23
2023-04-12T01:39:12.060Z,9.02
2023-04-12T01:41:45.239Z,8.88
2023-04-12T01:44:15.794Z,11.20
2023-04-12T01:46:44.159Z,8.73
2023-04-12T01:49:12.921Z,17.92
2023-04-12T01:51:49.403Z,11.50
2023-04-12T01:54:23.428Z,11.75
2023-04-12T01:56:51.540Z,9.55
2023-04-12T01:59:18.636Z,11.00
2023-04-12T02:01:46.992Z,7.78
2023-04-12T02:04:14.268Z,10.67
2023-04-12T02:06:41.361Z,8.32
2023-04-12T02:09:08.535Z,8.93
2023-04-12T02:11:35.759Z,9.50
2023-04-12T02:14:02.844Z,10.70
2023-04-12T02:16:30.019Z,11.20
2023-04-12T02:18:57.447Z,11.00
2023-04-12T02:21:24.556Z,11.48
2023-04-12T02:23:51.704Z,12.60
2023-04-12T02:26:18.906Z,13.97
2023-04-12T02:28:46.202Z,14.68
2023-04-12T02:31:13.368Z,16.45
2023-04-12T02:33:41.218Z,17.60
2023-04-12T02:36:10.179Z,11.60
2023-04-12T02:38:37.288Z,14.90
2023-04-12T02:41:04.452Z,12.75
2023-04-12T02:43:31.527Z,12.13
2023-04-12T02:45:58.631Z,12.80
2023-04-12T02:48:26.037Z,12.80
2023-04-12T02:50:53.276Z,11.52
2023-04-12T02:53:21.712Z,12.55
2023-04-12T02:55:48.827Z,10.63
2023-04-12T02:58:16.649Z,10.00
2023-04-12T03:00:43.866Z,10.25
2023-04-12T03:03:11.188Z,9.02
2023-04-12T03:05:39.626Z,8.50
2023-04-12T03:08:06.778Z,7.22
2023-04-12T03:10:33.937Z,13.03
2023-04-12T03:13:01.167Z,10.18
2023-04-12T03:15:29.340Z,10.27
2023-04-12T03:17:56.539Z,19.83
2023-04-12T03:20:28.270Z,8.87
2023-04-12T03:22:55.570Z,10.63
2023-04-12T03:25:22.731Z,10.17
2023-04-12T03:27:49.794Z,9.68
2023-04-12T03:30:17.033Z,7.15
2023-04-12T03:32:44.614Z,5.80
2023-04-12T03:35:12.016Z,6.72
2023-04-12T03:37:42.000Z,6.78
2023-04-12T03:40:09.975Z,5.18
2023-04-12T03:42:37.134Z,6.33
2023-04-12T03:45:04.384Z,6.03
2023-04-12T03:47:31.768Z,6.32
2023-04-12T03:52:33.951Z,6.40
2023-04-12T03:55:01.333Z,8.37
2023-04-12T03:57:28.547Z,6.73
2023-04-12T03:59:55.694Z,7.67
2023-04-12T04:02:22.932Z,7.40
2023-04-12T04:04:50.349Z,5.93
2023-04-12T04:07:17.531Z,5.07
2023-04-12T04:09:44.634Z,5.97
2023-04-12T04:12:11.792Z,6.57
2023-04-12T04:14:39.056Z,7.67
2023-04-12T04:17:06.306Z,7.83
2023-04-12T04:19:33.394Z,10.63
2023-04-12T04:22:02.030Z,6.60
2023-04-12T04:24:29.816Z,7.40
2023-04-12T04:26:56.884Z,7.20
2023-04-12T04:29:25.638Z,8.25
2023-04-12T04:31:53.797Z,8.18
2023-04-12T04:34:22.191Z,6.13
2023-04-12T04:36:49.537Z,7.45
2023-04-12T04:39:16.608Z,6.47
2023-04-12T04:41:44.738Z,9.57
2023-04-12T04:44:13.401Z,8.00
2023-04-12T04:46:40.545Z,7.80
2023-04-12T04:49:07.626Z,9.75
2023-04-12T04:51:34.767Z,8.20
2023-04-12T04:54:02.265Z,10.17
2023-04-12T04:56:29.405Z,10.33
2023-04-12T04:58:57.259Z,8.63
2023-04-12T05:01:28.536Z,7.57
2023-04-12T05:03:56.351Z,8.77
2023-04-12T05:06:23.679Z,9.43
2023-04-12T05:08:52.374Z,9.30
2023-04-12T05:11:19.989Z,9.27
2023-04-12T05:13:47.142Z,10.30
2023-04-12T05:16:14.315Z,8.33
2023-04-12T05:18:41.498Z,10.33
2023-04-12T05:21:08.664Z,8.97
2023-04-12T05:23:39.179Z,21.75
2023-04-12T05:26:06.537Z,12.40
2023-04-12T05:28:33.707Z,13.53
2023-04-12T05:31:00.856Z,23.40
2023-04-12T05:33:27.951Z,16.23
2023-04-12T05:35:55.380Z,9.70
2023-04-12T05:38:22.530Z,8.67
2023-04-12T05:40:52.574Z,8.85
2023-04-12T05:43:19.868Z,13.63
2023-04-12T05:45:47.037Z,10.93
2023-04-12T05:48:14.533Z,13.50
2023-04-12T05:50:41.715Z,11.97
2023-04-12T05:53:10.486Z,8.73
2023-04-12T05:55:38.198Z,11.45
2023-04-12T05:58:05.472Z,10.65
2023-04-12T06:00:32.558Z,11.83
2023-04-12T06:02:59.731Z,12.60
2023-04-12T06:05:27.112Z,14.77
2023-04-12T06:07:54.207Z,11.73
2023-04-12T06:10:21.362Z,9.93
2023-04-12T06:12:48.466Z,11.93
2023-04-12T06:15:15.625Z,12.02
2023-04-12T06:17:42.752Z,10.50
2023-04-12T06:20:10.250Z,11.85
2023-04-12T06:22:37.729Z,9.18
2023-04-12T06:25:05.284Z,11.13
2023-04-12T06:27:32.484Z,8.73
2023-04-12T06:29:59.647Z,9.18
2023-04-12T06:32:27.017Z,9.40
2023-04-12T06:34:54.184Z,14.15
2023-04-12T06:37:22.162Z,13.10
2023-04-12T06:39:49.330Z,11.13
2023-04-12T06:42:16.634Z,9.23
2023-04-12T06:44:43.818Z,10.35
2023-04-12T06:47:11.401Z,11.30
2023-04-12T06:49:38.988Z,7.65
2023-04-12T06:52:06.288Z,8.98
2023-04-12T06:54:33.838Z,8.25
2023-04-12T06:57:01.950Z,9.73
2023-04-12T06:59:29.367Z,9.60
2023-04-12T07:01:56.533Z,10.13
2023-04-12T07:04:23.718Z,8.77
2023-04-12T07:06:50.855Z,8.32
2023-04-12T07:09:17.959Z,9.93
2023-04-12T07:11:45.053Z,9.30
2023-04-12T07:14:12.139Z,7.00
2023-04-12T07:16:39.245Z,7.93
2023-04-12T07:19:06.414Z,8.75
2023-04-12T07:21:33.512Z,8.35
2023-04-12T07:24:01.553Z,9.95
2023-04-12T07:26:28.748Z,9.15
2023-04-12T07:28:56.114Z,10.00
2023-04-12T07:31:24.003Z,7.88
2023-04-12T07:33:51.299Z,12.25
2023-04-12T07:36:21.978Z,8.75
2023-04-12T07:38:51.403Z,8.52
2023-04-12T07:41:19.333Z,9.02
2023-04-12T07:43:46.474Z,7.70
2023-04-12T07:46:13.615Z,9.10
2023-04-12T07:48:40.831Z,6.75
2023-04-12T07:51:07.931Z,7.07
2023-04-12T07:53:35.003Z,6.25
2023-04-12T07:56:04.994Z,6.85
2023-04-12T07:58:32.332Z,6.72
2023-04-12T08:01:01.035Z,6.55
2023-04-12T08:03:28.666Z,7.10
2023-04-12T08:05:55.951Z,9.15
2023-04-12T08:08:23.340Z,5.43
2023-04-12T08:10:50.632Z,4.88
2023-04-12T08:13:17.952Z,6.22
2023-04-12T08:15:47.086Z,8.05
2023-04-12T08:18:14.351Z,5.88
2023-04-12T08:20:41.536Z,7.82
2023-04-12T08:23:09.396Z,5.55
2023-04-12T08:25:36.562Z,5.57
2023-04-12T08:28:03.948Z,5.25
2023-04-12T08:30:31.331Z,8.25
2023-04-12T08:32:58.541Z,4.20
2023-04-12T08:35:25.962Z,5.32
2023-04-12T08:37:53.058Z,4.10
2023-04-12T08:40:21.869Z,5.95
2023-04-12T08:42:49.114Z,6.28
2023-04-12T08:45:16.222Z,3.70
2023-04-12T08:47:43.803Z,4.20
2023-04-12T08:50:13.702Z,3.83
2023-04-12T08:52:41.182Z,4.82
2023-04-12T08:55:08.655Z,4.68
2023-04-12T08:57:36.061Z,4.22
2023-04-12T09:00:03.879Z,5.22
2023-04-12T09:02:31.673Z,8.98
2023-04-12T09:04:59.157Z,7.05
2023-04-12T09:07:30.638Z,6.85
2023-04-12T09:09:58.410Z,5.90
2023-04-12T09:12:25.577Z,4.85
2023-04-12T09:15:09.106Z,3.95
2023-04-12T09:17:39.464Z,3.80
2023-04-12T09:20:18.726Z,4.00
2023-04-12T09:22:46.803Z,3.42
2023-04-12T09:25:14.238Z,3.55
2023-04-12T09:27:50.982Z,3.28
2023-04-12T09:30:18.656Z,3.17
2023-04-12T09:32:45.893Z,2.80
2023-04-12T09:35:13.047Z,3.75
2023-04-12T09:37:40.741Z,2.63
2023-04-12T09:40:08.937Z,1.90
2023-04-12T09:42:36.695Z,1.70
2023-04-12T09:45:23.843Z,3.38
2023-04-12T09:47:51.219Z,2.55
2023-04-12T09:50:22.747Z,3.08
2023-04-12T09:52:50.177Z,5.32
2023-04-12T09:55:17.385Z,3.95
2023-04-12T09:57:45.153Z,2.35
2023-04-12T10:00:14.089Z,2.20
2023-04-12T10:02:44.478Z,2.50
2023-04-12T10:05:15.018Z,3.92
2023-04-12T10:07:42.524Z,3.58
2023-04-12T10:10:12.294Z,2.50
2023-04-12T10:12:42.939Z,3.33
2023-04-12T10:15:13.823Z,2.50
2023-04-12T10:17:47.147Z,4.20
2023-04-12T10:20:15.432Z,3.78
2023-04-12T10:22:43.818Z,3.30
2023-04-12T10:25:12.660Z,2.30
2023-04-12T10:27:41.463Z,3.85
2023-04-12T10:30:27.608Z,3.33
2023-04-12T10:33:16.603Z,2.38
2023-04-12T10:35:50.008Z,1.80
2023-04-12T10:38:17.238Z,3.25
2023-04-12T10:41:02.936Z,2.97
2023-04-12T10:43:30.325Z,2.30
2023-04-12T10:45:58.981Z,5.97
2023-04-12T10:48:32.633Z,3.25
2023-04-12T10:51:16.142Z,6.32
2023-04-12T10:53:43.258Z,5.13
2023-04-12T10:56:30.753Z,3.13
2023-04-12T10:59:00.116Z,5.18
2023-04-12T11:01:28.122Z,2.08
2023-04-12T11:04:12.355Z,1.95
2023-04-12T11:06:59.544Z,3.13
2023-04-12T11:09:26.977Z,3.10
2023-04-12T11:12:12.429Z,1.92
2023-04-12T11:14:43.710Z,2.22
2023-04-12T11:17:11.269Z,1.60
2023-04-12T11:19:54.970Z,1.60
2023-04-12T11:22:23.020Z,1.92
2023-04-12T11:24:51.262Z,1.55
2023-04-12T11:27:19.378Z,1.75
2023-04-12T11:29:48.177Z,2.20
2023-04-12T11:32:15.449Z,72.50
2023-04-12T11:34:43.530Z,4.35
2023-04-12T11:37:11.049Z,1.83
2023-04-12T11:39:44.776Z,2.25
2023-04-12T11:42:18.607Z,2.92
2023-04-12T11:47:19.650Z,2.28
2023-04-12T11:49:50.721Z,1.80
2023-04-12T11:52:18.237Z,3.13
2023-04-12T11:54:46.174Z,1.67
2023-04-12T11:57:14.131Z,1.67
2023-04-12T11:59:41.399Z,2.00
2023-04-12T12:02:21.235Z,1.65
2023-04-12T12:04:50.736Z,2.00
2023-04-12T12:07:18.240Z,1.50
2023-04-12T12:09:46.461Z,3.10
2023-04-12T12:12:13.910Z,3.22
2023-04-12T12:14:41.081Z,2.60
2023-04-12T12:17:12.159Z,2.30
2023-04-12T12:19:40.087Z,1.75
2023-04-12T12:22:17.461Z,6.53
2023-04-12T12:24:57.754Z,2.55
2023-04-12T12:27:25.577Z,1.30
2023-04-12T12:29:53.430Z,3.10
2023-04-12T12:32:23.103Z,3.10
2023-04-12T12:34:54.233Z,9.00
2023-04-12T12:37:22.083Z,7.05
2023-04-12T12:40:11.290Z,4.65
2023-04-12T12:42:39.461Z,3.38
2023-04-12T12:45:07.186Z,4.25
2023-04-12T12:47:34.313Z,3.40
2023-04-12T12:50:01.423Z,2.22
2023-04-12T12:52:28.527Z,1.90
2023-04-12T12:54:55.881Z,1.60
2023-04-12T12:57:23.027Z,1.52
2023-04-12T12:59:50.113Z,2.65
2023-04-12T13:02:19.885Z,2.38
2023-04-12T13:04:47.183Z,3.88
2023-04-12T13:07:14.339Z,4.75
2023-04-12T13:09:41.485Z,7.75
2023-04-12T13:12:08.812Z,4.07
2023-04-12T13:14:36.578Z,4.97
2023-04-12T13:17:03.716Z,2.95
2023-04-12T13:19:31.005Z,2.63
2023-04-12T13:21:58.102Z,8.60
2023-04-12T13:24:25.728Z,6.22
2023-04-12T13:26:52.822Z,4.43
2023-04-12T13:29:19.911Z,3.38
2023-04-12T13:31:47.151Z,2.78
2023-04-12T13:34:14.661Z,2.47
2023-04-12T13:36:41.735Z,2.67
2023-04-12T13:39:08.900Z,3.08
2023-04-12T13:41:36.069Z,2.05
2023-04-12T13:44:04.019Z,2.05
2023-04-12T13:46:34.222Z,3.20
2023-04-12T13:49:01.924Z,6.45
2023-04-12T13:51:28.999Z,10.90
2023-04-12T13:53:56.322Z,2.30
2023-04-12T13:56:23.416Z,3.20
2023-04-12T13:58:50.494Z,4.20
2023-04-12T14:01:18.271Z,4.95
2023-04-12T14:03:45.425Z,10.63
2023-04-12T14:06:12.571Z,5.40
2023-04-12T14:08:39.651Z,2.08
2023-04-12T14:11:07.332Z,4.35
2023-04-12T14:13:34.422Z,1.60
2023-04-12T14:16:01.507Z,1.88
2023-04-12T14:18:28.651Z,1.80
2023-04-12T14:20:57.598Z,2.25
2023-04-12T14:23:27.935Z,5.30
2023-04-12T14:25:55.086Z,3.03
2023-04-12T14:28:24.146Z,2.03
2023-04-12T14:30:52.016Z,3.10
2023-04-12T14:33:19.546Z,3.35
2023-04-12T14:35:46.690Z,5.47
2023-04-12T14:38:13.813Z,2.30
2023-04-12T14:40:40.922Z,2.30
2023-04-12T14:43:08.037Z,2.00
2023-04-12T14:45:37.270Z,3.20
2023-04-12T14:48:04.526Z,3.78
2023-04-12T14:50:31.715Z,2.05
2023-04-12T14:52:58.806Z,1.75
2023-04-12T14:55:26.203Z,2.67
2023-04-12T14:57:53.288Z,1.92
2023-04-12T15:00:20.697Z,5.65
2023-04-12T15:02:48.837Z,2.33
2023-04-12T15:05:16.282Z,3.13
2023-04-12T15:07:43.528Z,4.75
2023-04-12T15:10:10.789Z,3.13
2023-04-12T15:12:37.869Z,2.55
2023-04-12T15:15:06.433Z,4.13
2023-04-12T15:17:37.193Z,8.52
2023-04-12T15:20:12.456Z,2.45
2023-04-12T15:22:40.173Z,5.75
2023-04-12T15:25:07.748Z,4.35
2023-04-12T15:27:34.955Z,2.47
2023-04-12T15:30:02.285Z,9.18
2023-04-12T15:32:29.415Z,6.75
2023-04-12T15:34:56.570Z,3.38
2023-04-12T15:37:23.780Z,2.90
2023-04-12T15:39:50.946Z,3.50
2023-04-12T15:42:18.116Z,5.50
2023-04-12T15:44:45.643Z,11.00
2023-04-12T15:47:12.706Z,10.25
2023-04-12T15:49:42.529Z,9.00
2023-04-12T15:52:09.658Z,8.20
2023-04-12T15:54:43.416Z,6.90
2023-04-12T15:57:11.579Z,11.18
2023-04-12T15:59:42.031Z,5.30
2023-04-12T16:02:10.067Z,6.70
2023-04-12T16:04:37.570Z,16.60
2023-04-12T16:07:05.597Z,7.75
2023-04-12T16:09:32.760Z,10.68
2023-04-12T16:12:00.618Z,9.40
2023-04-12T16:14:28.278Z,8.05
2023-04-12T16:16:56.781Z,150.25
2023-04-12T16:19:23.910Z,57.65
2023-04-12T16:21:53.184Z,87.88
2023-04-12T16:24:21.012Z,303.48
2023-04-12T16:26:48.170Z,307.73
2023-04-12T16:29:15.702Z,153.95
2023-04-12T16:31:42.837Z,124.72
2023-04-12T16:34:10.941Z,93.65
2023-04-12T16:36:38.595Z,165.65
2023-04-12T16:39:06.322Z,118.38
2023-04-12T16:41:33.422Z,151.35
2023-04-12T16:44:03.350Z,130.93
2023-04-12T16:46:30.688Z,92.47
2023-04-12T16:48:59.290Z,82.75
2023-04-12T16:51:27.130Z,86.13
2023-04-12T16:54:04.324Z,47.97
2023-04-12T16:56:31.964Z,64.68
2023-04-12T16:59:00.020Z,39.60
2023-04-12T17:01:27.130Z,35.45
2023-04-12T17:03:54.627Z,35.45
2023-04-12T17:06:21.903Z,25.80
2023-04-12T17:08:49.210Z,10.43
2023-04-12T17:11:16.347Z,39.70
2023-04-12T17:13:44.646Z,25.38
2023-04-12T17:16:12.027Z,29.17
2023-04-12T17:18:40.213Z,31.15
2023-04-12T17:21:07.406Z,24.25
2023-04-12T17:23:36.576Z,20.75
2023-04-12T17:26:04.331Z,17.60
2023-04-12T17:28:34.560Z,103.13
2023-04-12T17:31:02.582Z,90.07
2023-04-12T17:33:29.646Z,72.78
2023-04-12T17:35:56.774Z,94.00
2023-04-12T17:38:23.890Z,84.25
2023-04-12T17:40:51.025Z,92.90
2023-04-12T17:43:18.155Z,81.05
2023-04-12T17:45:45.360Z,92.93
2023-04-12T17:48:14.758Z,95.25
2023-04-12T17:50:42.231Z,91.13
2023-04-12T17:53:09.357Z,90.13
2023-04-12T17:55:37.199Z,93.35
2023-04-12T17:58:04.295Z,101.05
2023-04-12T18:00:34.191Z,84.80
2023-04-12T18:03:01.412Z,104.20
2023-04-12T18:05:28.648Z,86.90
2023-04-12T18:07:57.064Z,75.85
2023-04-12T18:10:27.240Z,69.40
2023-04-12T18:12:54.517Z,69.55
2023-04-12T18:15:21.695Z,62.45
2023-04-12T18:17:49.098Z,62.88
2023-04-12T18:20:16.501Z,62.75
2023-04-12T18:22:44.715Z,70.65
2023-04-12T18:25:12.303Z,78.63
2023-04-12T18:27:39.420Z,72.55
2023-04-12T18:30:07.488Z,84.50
2023-04-12T18:32:34.714Z,103.05
2023-04-12T18:35:02.552Z,103.00
2023-04-12T18:37:29.865Z,84.75
2023-04-12T18:39:56.991Z,69.28
2023-04-12T18:42:24.090Z,81.00
2023-04-12T18:44:52.128Z,70.67
2023-04-12T18:47:19.652Z,103.28
2023-04-12T18:49:46.846Z,90.20
2023-04-12T18:52:13.982Z,111.35
2023-04-12T18:54:41.489Z,79.95
2023-04-12T18:57:11.414Z,62.67
2023-04-12T18:59:38.572Z,70.80
2023-04-12T19:02:08.124Z,63.00
2023-04-12T19:04:36.416Z,49.88
2023-04-12T19:07:03.534Z,60.80
2023-04-12T19:09:30.586Z,55.42
2023-04-12T19:11:58.062Z,50.63
2023-04-12T19:14:25.425Z,53.10
2023-04-12T19:16:52.995Z,53.13
2023-04-12T19:19:20.102Z,52.50
2023-04-12T19:21:47.684Z,54.23
2023-04-12T19:24:14.871Z,48.47
2023-04-12T19:26:46.820Z,31.13
2023-04-12T19:29:17.887Z,32.40
2023-04-12T19:31:47.345Z,33.33
2023-04-12T19:34:17.740Z,31.87
2023-04-12T19:36:45.160Z,33.50
2023-04-12T19:39:12.546Z,42.93
2023-04-12T19:41:39.628Z,40.67
2023-04-12T19:44:06.735Z,54.10
2023-04-12T19:46:34.405Z,65.20
2023-04-12T19:49:01.984Z,70.17
2023-04-12T19:51:32.176Z,79.77
2023-04-12T19:53:59.602Z,100.60
2023-04-12T19:56:26.945Z,101.77
2023-04-12T19:58:54.662Z,94.13
2023-04-12T20:01:21.864Z,87.43
2023-04-12T20:03:49.023Z,74.20
2023-04-12T20:06:16.168Z,78.00
2023-04-12T20:08:43.230Z,74.30
2023-04-12T20:11:10.641Z,82.57
2023-04-12T20:13:37.986Z,83.53
2023-04-12T20:16:05.231Z,79.10
2023-04-12T20:18:32.656Z,69.83
2023-04-12T20:20:59.804Z,59.67
2023-04-12T20:23:27.208Z,53.30
2023-04-12T20:25:55.546Z,46.10
2023-04-12T20:28:23.342Z,44.67
2023-04-12T20:30:50.554Z,52.60
2023-04-12T20:33:17.743Z,49.27
2023-04-12T20:35:45.011Z,43.33
2023-04-12T20:38:13.127Z,44.37
2023-04-12T20:40:40.768Z,73.40
2023-04-12T20:43:08.603Z,101.63
2023-04-12T20:45:38.036Z,107.50
2023-04-12T20:48:05.416Z,108.23
2023-04-12T20:50:32.976Z,81.50
2023-04-12T20:53:00.067Z,115.03
2023-04-12T20:55:32.855Z,126.30
2023-04-12T20:58:00.718Z,101.53
2023-04-12T21:00:29.526Z,128.97
2023-04-12T21:02:56.834Z,108.40
2023-04-12T21:05:24.221Z,89.63
2023-04-12T21:07:51.509Z,80.43
2023-04-12T21:10:18.778Z,76.47
2023-04-12T21:12:47.110Z,79.20
2023-04-12T21:15:14.581Z,69.90
2023-04-12T21:17:41.797Z,66.97
2023-04-12T21:20:13.140Z,54.57
2023-04-12T21:22:41.181Z,69.33
2023-04-12T21:25:09.754Z,59.37
2023-04-12T21:27:36.922Z,59.90
2023-04-12T21:30:04.265Z,64.63
2023-04-12T21:32:32.531Z,69.50
2023-04-12T21:35:00.086Z,68.13
2023-04-12T21:37:27.686Z,72.43
2023-04-12T21:39:54.822Z,66.93
2023-04-12T21:42:21.929Z,42.73
2023-04-12T21:44:49.006Z,47.87
2023-04-12T21:47:16.592Z,40.03
2023-04-12T21:49:43.657Z,37.03
2023-04-12T21:52:10.965Z,41.50
2023-04-12T21:54:38.118Z,38.80
2023-04-12T21:57:06.169Z,41.60
2023-04-12T21:59:33.237Z,47.23
2023-04-12T22:02:00.694Z,47.40
2023-04-12T22:04:27.897Z,48.30
2023-04-12T22:06:56.664Z,44.30
2023-04-12T22:09:24.709Z,47.63
2023-04-12T22:11:51.860Z,43.33
2023-04-12T22:14:18.969Z,48.87
2023-04-12T22:16:46.804Z,47.97
2023-04-12T22:19:13.964Z,62.17
2023-04-12T22:21:41.431Z,62.40
2023-04-12T22:24:08.600Z,58.83
2023-04-12T22:26:35.727Z,59.50
2023-04-12T22:29:02.953Z,44.57
2023-04-12T22:31:30.110Z,66.27
2023-04-12T22:33:57.476Z,63.53
2023-04-12T22:36:28.507Z,45.00
2023-04-12T22:38:56.368Z,51.70
2023-04-12T22:41:23.548Z,54.60
2023-04-12T22:44:01.416Z,48.63
2023-04-12T22:46:32.001Z,47.90
2023-04-12T22:49:00.433Z,43.67
2023-04-12T22:51:27.850Z,41.40
2023-04-12T22:53:55.465Z,42.30
2023-04-12T22:56:22.877Z,40.53
2023-04-12T22:58:49.996Z,38.00
2023-04-12T23:01:18.113Z,37.47
2023-04-12T23:03:45.836Z,35.40
2023-04-12T23:06:13.019Z,47.60
2023-04-12T23:08:40.670Z,45.93
2023-04-12T23:11:08.341Z,46.87
2023-04-12T23:13:35.453Z,52.07
2023-04-12T23:16:03.570Z,46.23
2023-04-12T23:18:30.798Z,42.80
2023-04-12T23:20:57.908Z,46.23
2023-04-12T23:23:25.068Z,49.10
2023-04-12T23:25:52.963Z,61.23
2023-04-12T23:28:21.789Z,61.93
2023-04-12T23:30:49.564Z,68.20
2023-04-12T23:33:20.335Z,64.87
2023-04-12T23:35:52.610Z,58.10
2023-04-12T23:38:24.320Z,65.77
2023-04-12T23:40:53.886Z,85.80
2023-04-12T23:43:24.619Z,52.97
2023-04-12T23:45:54.708Z,47.63
2023-04-12T23:48:22.492Z,56.00
2023-04-12T23:50:49.980Z,46.70
2023-04-12T23:53:17.228Z,48.33
2023-04-12T23:55:44.669Z,55.33
2023-04-12T23:58:11.839Z,52.73
